Ship Status Report: callsign FICK

sailwx.info

Track history (hours):
 
Tides and Currents Weather Stations Pressure Air Temp Water Temp Dewpoint Dewpoint Depression Visibility Wind Speed Wind Dir Waves Ship Positions

Callsign FICK (name unknown)

Last reported at 2016-Feb-08 11:33 UTC. Time now 2016-Feb-12 03:43 UTC.
Position N 48°51' E 002°17'.

Date/timePositionNaut miles runAvg speedWind from/ knotsBaromVisibWave heightAir tempDewpointWater temp
2016-Feb-08 11:33N 48°51' E 002°17'1 0.5
2016-Feb-08 10:29N 48°51' E 002°16'928796.7
2016-Feb-08 09:19N 36°25' E 014°47'1114.4
2016-Feb-08 08:33N 36°28' E 014°34'1414.0
2016-Feb-08 07:33N 36°34' E 014°18'1414.1
2016-Feb-08 06:33N 36°40' E 014°03'1414.1
2016-Feb-08 05:34N 36°47' E 013°48'1414.0
2016-Feb-08 04:33N 36°55' E 013°33'875290.3
2016-Feb-08 01:33N 48°57' E 002°17'3 0.4
2016-Feb-07 19:15N 48°56' E 002°14'6 1.0
2016-Feb-07 13:33N 48°59' E 002°08'701693.8
2016-Feb-07 12:33N 38°31' E 009°16'1414.0
2016-Feb-07 11:32N 38°35' E 008°60'1414.1
2016-Feb-07 10:33N 38°40' E 008°43'3414.0
2016-Feb-07 08:06N 38°54' E 008°02'23414.1
2016-Feb-06 15:32N 40°44' E 003°34'1414.4
2016-Feb-06 14:33N 40°50' E 003°17'1414.4
2016-Feb-06 13:33N 40°57' E 003°00'1514.5
2016-Feb-06 12:33N 41°04' E 002°43'1414.6
2016-Feb-06 11:33N 41°11' E 002°26'462 9.8
2016-Feb-04 12:34N 48°52' E 002°14'11 8.1
2016-Feb-04 11:09N 48°59' E 001°60'2 4.1
2016-Feb-04 10:33N 48°57' E 002°03'484484.1
2016-Feb-04 09:33N 40°53' E 001°56'1312.9
2016-Feb-04 08:33N 40°42' E 001°48'1313.0
2016-Feb-04 07:33N 40°30' E 001°40'1312.8
2016-Feb-04 06:33N 40°19' E 001°33'1312.7
2016-Feb-04 05:33N 40°08' E 001°25'1312.8
2016-Feb-04 04:33N 39°56' E 001°18'12113.0
2016-Feb-03 19:14N 38°10' E 000°02'913.2
2016-Feb-03 18:33N 38°03' W 000°05'1313.5
2016-Feb-03 17:33N 37°52' W 000°15'1413.5
2016-Feb-03 16:33N 37°41' W 000°24'1413.5
2016-Feb-03 15:33N 37°30' W 000°35'1313.6
2016-Feb-03 14:33N 37°21' W 000°47'705661.9
2016-Feb-03 13:30N 48°54' E 002°16'84252.8
2016-Feb-02 21:33N 35°59' W 005°13'841119.8
2016-Feb-02 14:32N 48°49' E 002°24'877904.8
2016-Feb-02 13:33N 36°09' W 007°29'1414.2
2016-Feb-02 12:33N 36°12' W 007°46'1413.8
2016-Feb-02 11:31N 36°15' W 008°04'1413.8
2016-Feb-02 10:31N 36°19' W 008°20'1313.9
2016-Feb-02 09:33N 36°22' W 008°37'1413.9
2016-Feb-02 08:33N 36°25' W 008°53'2813.5
2016-Feb-02 06:31N 36°35' W 009°25'1313.6
2016-Feb-02 05:33N 36°45' W 009°36'1413.7
2016-Feb-02 04:33N 36°58' W 009°41'1413.9
2016-Feb-02 03:33N 37°11' W 009°45'1514.1
2016-Feb-02 02:30N 37°26' W 009°49'1314.0
2016-Feb-02 01:33N 37°39' W 009°52'1413.9
2016-Feb-02 00:33N 37°52' W 009°57'1414.0
2016-Feb-01 23:33N 38°06' W 010°01'1414.1
2016-Feb-01 22:33N 38°20' W 010°05'1414.0
2016-Feb-01 21:33N 38°33' W 010°09'1413.9
2016-Feb-01 20:33N 38°47' W 010°12'1414.0
2016-Feb-01 19:33N 39°01' W 010°11'1414.1
2016-Feb-01 18:33N 39°15' W 010°12'1614.0
2016-Feb-01 17:26N 39°31' W 010°12'1314.0
2016-Feb-01 16:29N 39°44' W 010°11'1314.2
2016-Feb-01 15:33N 39°57' W 010°11'2914.0
2016-Feb-01 13:28N 40°26' W 010°12'  
2016-Jan-29 14:11N 50°30' W 000°05'6 9.3
2016-Jan-29 13:31N 50°31' E 000°04'8 8.6
2016-Jan-29 12:33N 50°33' E 000°17'  
Track history (hours):
 
Tides and Currents Weather Stations Pressure Air Temp Water Temp Dewpoint Dewpoint Depression Visibility Wind Speed Wind Dir Waves Ship Positions

Callsign FICK (name unknown)

Last reported at 2016-Feb-08 11:33 UTC. Time now 2016-Feb-12 03:43 UTC.
Position N 48°51' E 002°17'.

Date/timePositionNaut miles runAvg speedWind from/ knotsBaromVisibWave heightAir tempDewpointWater temp
2016-Feb-08 11:33N 48°51' E 002°17'1 0.5
2016-Feb-08 10:29N 48°51' E 002°16'928796.7
2016-Feb-08 09:19N 36°25' E 014°47'1114.4
2016-Feb-08 08:33N 36°28' E 014°34'1414.0
2016-Feb-08 07:33N 36°34' E 014°18'1414.1
2016-Feb-08 06:33N 36°40' E 014°03'1414.1
2016-Feb-08 05:34N 36°47' E 013°48'1414.0
2016-Feb-08 04:33N 36°55' E 013°33'875290.3
2016-Feb-08 01:33N 48°57' E 002°17'3 0.4
2016-Feb-07 19:15N 48°56' E 002°14'6 1.0
2016-Feb-07 13:33N 48°59' E 002°08'701693.8
2016-Feb-07 12:33N 38°31' E 009°16'1414.0
2016-Feb-07 11:32N 38°35' E 008°60'1414.1
2016-Feb-07 10:33N 38°40' E 008°43'3414.0
2016-Feb-07 08:06N 38°54' E 008°02'23414.1
2016-Feb-06 15:32N 40°44' E 003°34'1414.4
2016-Feb-06 14:33N 40°50' E 003°17'1414.4
2016-Feb-06 13:33N 40°57' E 003°00'1514.5
2016-Feb-06 12:33N 41°04' E 002°43'1414.6
2016-Feb-06 11:33N 41°11' E 002°26'462 9.8
2016-Feb-04 12:34N 48°52' E 002°14'11 8.1
2016-Feb-04 11:09N 48°59' E 001°60'2 4.1
2016-Feb-04 10:33N 48°57' E 002°03'484484.1
2016-Feb-04 09:33N 40°53' E 001°56'1312.9
2016-Feb-04 08:33N 40°42' E 001°48'1313.0
2016-Feb-04 07:33N 40°30' E 001°40'1312.8
2016-Feb-04 06:33N 40°19' E 001°33'1312.7
2016-Feb-04 05:33N 40°08' E 001°25'1312.8
2016-Feb-04 04:33N 39°56' E 001°18'12113.0
2016-Feb-03 19:14N 38°10' E 000°02'913.2
2016-Feb-03 18:33N 38°03' W 000°05'1313.5
2016-Feb-03 17:33N 37°52' W 000°15'1413.5
2016-Feb-03 16:33N 37°41' W 000°24'1413.5
2016-Feb-03 15:33N 37°30' W 000°35'1313.6
2016-Feb-03 14:33N 37°21' W 000°47'705661.9
2016-Feb-03 13:30N 48°54' E 002°16'84252.8
2016-Feb-02 21:33N 35°59' W 005°13'841119.8
2016-Feb-02 14:32N 48°49' E 002°24'877904.8
2016-Feb-02 13:33N 36°09' W 007°29'1414.2
2016-Feb-02 12:33N 36°12' W 007°46'1413.8
2016-Feb-02 11:31N 36°15' W 008°04'1413.8
2016-Feb-02 10:31N 36°19' W 008°20'1313.9
2016-Feb-02 09:33N 36°22' W 008°37'1413.9
2016-Feb-02 08:33N 36°25' W 008°53'2813.5
2016-Feb-02 06:31N 36°35' W 009°25'1313.6
2016-Feb-02 05:33N 36°45' W 009°36'1413.7
2016-Feb-02 04:33N 36°58' W 009°41'1413.9
2016-Feb-02 03:33N 37°11' W 009°45'1514.1
2016-Feb-02 02:30N 37°26' W 009°49'1314.0
2016-Feb-02 01:33N 37°39' W 009°52'1413.9
2016-Feb-02 00:33N 37°52' W 009°57'1414.0
2016-Feb-01 23:33N 38°06' W 010°01'1414.1
2016-Feb-01 22:33N 38°20' W 010°05'1414.0
2016-Feb-01 21:33N 38°33' W 010°09'1413.9
2016-Feb-01 20:33N 38°47' W 010°12'1414.0
2016-Feb-01 19:33N 39°01' W 010°11'1414.1
2016-Feb-01 18:33N 39°15' W 010°12'1614.0
2016-Feb-01 17:26N 39°31' W 010°12'1314.0
2016-Feb-01 16:29N 39°44' W 010°11'1314.2
2016-Feb-01 15:33N 39°57' W 010°11'2914.0
2016-Feb-01 13:28N 40°26' W 010°12'  
2016-Jan-29 14:11N 50°30' W 000°05'6 9.3
2016-Jan-29 13:31N 50°31' E 000°04'8 8.6
2016-Jan-29 12:33N 50°33' E 000°17'  

Dump ship's entire track history